Time;durP1;ratioP1;P1;durP2;ratioP2;P2;SDS_P1;SDS_P2;PMS_P1;PMS_P2;Temp;Humidity;BMP_temperature;BMP_pressure;BME280_temperature;BME280_humidity;BME280_pressure;Samples;Min_cycle;Max_cycle;Signal;HPM_P1;HPM_P2
2022/01/03 00:01:30;;;;;;;5.85;4.30;;;;;;;2.03;74.10;98459.41;1741719;82;21045;-38
2022/01/03 00:05:18;;;;;;;6.08;4.35;;;;;;;2.16;74.16;98420.17;1802393;78;22447;-39
2022/01/03 00:07:46;;;;;;;8.73;4.83;;;;;;;2.07;74.46;98426.92;1785766;79;20996;-38
2022/01/03 00:10:16;;;;;;;5.87;4.30;;;;;;;2.06;74.73;98425.36;1795844;79;21158;-38
2022/01/03 00:12:45;;;;;;;7.12;4.55;;;;;;;2.05;74.99;98417.66;1784111;79;20961;-38
2022/01/03 00:15:13;;;;;;;6.92;4.58;;;;;;;2.02;75.41;98416.42;1781265;79;20953;-38
2022/01/03 00:17:41;;;;;;;6.62;5.05;;;;;;;2.07;75.53;98400.19;1780811;79;20953;-38
2022/01/03 00:20:11;;;;;;;5.80;4.78;;;;;;;2.07;75.77;98402.87;1798896;79;20905;-39
2022/01/03 00:23:02;;;;;;;5.93;4.90;;;;;;;2.05;76.01;98398.39;1801933;79;21117;-38
2022/01/03 00:25:30;;;;;;;5.75;4.83;;;;;;;2.05;76.18;98399.72;1794502;79;20953;-38
2022/01/03 00:28:22;;;;;;;7.40;4.95;;;;;;;2.06;76.43;98377.23;1788931;79;20929;-38
2022/01/03 00:30:56;;;;;;;8.10;5.08;;;;;;;2.09;76.39;98363.75;1771516;79;20948;-38
2022/01/03 00:33:24;;;;;;;6.65;5.17;;;;;;;2.03;76.75;98340.45;1800830;79;21777;-39
2022/01/03 00:35:58;;;;;;;6.10;4.83;;;;;;;2.04;76.92;98342.57;1791275;79;21066;-38
2022/01/03 00:38:27;;;;;;;5.78;4.53;;;;;;;2.05;77.14;98336.91;1773386;79;20957;-39
2022/01/03 00:40:54;;;;;;;7.80;5.47;;;;;;;2.10;77.16;98339.37;1771489;79;20941;-38
2022/01/03 00:43:21;;;;;;;6.72;5.33;;;;;;;2.07;77.41;98318.66;1788176;78;20953;-38
2022/01/03 00:45:52;;;;;;;7.25;5.22;;;;;;;2.05;77.51;98298.14;1803019;79;21029;-38
2022/01/03 00:48:18;;;;;;;7.95;5.67;;;;;;;2.06;77.72;98311.74;1782137;79;21097;-38
2022/01/03 00:50:46;;;;;;;7.62;5.72;;;;;;;2.09;77.82;98319.09;1784634;79;20921;-38
2022/01/03 00:53:13;;;;;;;7.80;5.80;;;;;;;2.08;78.05;98314.09;1775758;79;21008;-38
2022/01/03 00:55:57;;;;;;;7.47;5.60;;;;;;;2.06;78.22;98324.32;1803038;79;21041;-39
2022/01/03 00:58:23;;;;;;;6.65;5.35;;;;;;;2.07;78.40;98287.91;1780592;79;21529;-39
2022/01/03 01:00:51;;;;;;;10.25;6.17;;;;;;;2.10;78.58;98281.90;1800798;79;21590;-38
2022/01/03 01:03:22;;;;;;;10.38;6.30;;;;;;;2.11;78.71;98275.45;1800067;79;21555;-39
2022/01/03 01:05:50;;;;;;;9.00;5.62;;;;;;;2.09;78.93;98284.34;1784269;79;20913;-38
2022/01/03 01:08:22;;;;;;;7.75;5.35;;;;;;;2.13;79.02;98261.76;1780111;79;21547;-38
2022/01/03 01:10:52;;;;;;;9.85;6.35;;;;;;;2.15;79.16;98268.33;1770969;79;21017;-39
2022/01/03 01:13:21;;;;;;;7.03;5.70;;;;;;;2.17;79.28;98247.95;1784356;79;21409;-39
2022/01/03 01:15:49;;;;;;;7.00;5.55;;;;;;;2.14;79.42;98244.03;1795504;79;21690;-39
2022/01/03 01:18:16;;;;;;;6.72;5.45;;;;;;;2.19;79.48;98239.81;1776818;79;21057;-38
2022/01/03 01:20:45;;;;;;;8.48;5.95;;;;;;;2.26;79.38;98231.81;1768695;79;21053;-38
2022/01/03 01:23:14;;;;;;;9.88;6.30;;;;;;;2.29;79.48;98245.28;1789396;79;21060;-39
2022/01/03 01:28:13;;;;;;;8.05;6.12;;;;;;;2.35;79.63;98221.78;1799612;78;21001;-39
2022/01/03 01:30:41;;;;;;;8.38;6.30;;;;;;;2.43;79.50;98223.56;1785455;79;21037;-39
2022/01/03 01:33:13;;;;;;;8.00;6.12;;;;;;;2.43;79.47;98216.88;1770233;79;21524;-38
2022/01/03 01:35:55;;;;;;;8.23;5.78;;;;;;;2.42;79.44;98216.68;1791391;79;21020;-38
2022/01/03 01:38:31;;;;;;;8.15;6.25;;;;;;;2.46;79.43;98217.58;1799486;79;21970;-38
2022/01/03 01:41:00;;;;;;;9.95;6.78;;;;;;;2.52;79.21;98218.34;1791292;79;21498;-39
2022/01/03 01:43:40;;;;;;;8.28;6.58;;;;;;;2.51;79.26;98206.09;1784575;79;21029;-38
2022/01/03 01:46:13;;;;;;;7.30;5.70;;;;;;;2.52;79.21;98197.48;1734663;79;21758;-38
2022/01/03 01:48:44;;;;;;;9.28;6.12;;;;;;;2.59;79.09;98199.06;1798118;79;21033;-38
2022/01/03 01:51:14;;;;;;;8.35;6.28;;;;;;;2.61;78.90;98195.51;1779680;79;21109;-38
2022/01/03 01:53:48;;;;;;;10.45;6.58;;;;;;;2.59;78.97;98176.32;1794409;79;20961;-39
2022/01/03 01:56:23;;;;;;;8.45;6.12;;;;;;;2.62;78.93;98169.73;1798444;79;20969;-39
2022/01/03 01:59:10;;;;;;;8.90;6.12;;;;;;;2.69;78.81;98169.18;1789317;79;20969;-38
2022/01/03 02:01:50;;;;;;;10.55;6.60;;;;;;;2.73;78.79;98167.94;1776509;79;21004;-39
2022/01/03 02:04:41;;;;;;;7.70;6.12;;;;;;;2.71;78.90;98150.13;1768459;79;21148;-38
2022/01/03 02:07:28;;;;;;;10.48;6.28;;;;;;;2.71;78.97;98148.20;1769413;79;21645;-39
2022/01/03 02:10:10;;;;;;;11.30;6.97;;;;;;;2.77;78.99;98150.09;1778134;79;21297;-39
2022/01/03 02:12:42;;;;;;;9.50;6.78;;;;;;;2.77;79.04;98154.89;1768848;79;20965;-38
2022/01/03 02:15:13;;;;;;;9.73;6.50;;;;;;;2.77;79.26;98156.78;1756715;79;21076;-38
2022/01/03 02:17:45;;;;;;;10.03;6.53;;;;;;;2.75;79.43;98157.14;1777329;79;21200;-39
2022/01/03 02:20:21;;;;;;;9.23;6.40;;;;;;;2.83;79.31;98140.16;1789788;79;20987;-39
2022/01/03 02:22:48;;;;;;;9.63;6.50;;;;;;;2.87;79.24;98131.67;1776534;79;20965;-39
2022/01/03 02:25:19;;;;;;;7.00;5.35;;;;;;;2.86;79.31;98116.73;1775560;79;20941;-38
2022/01/03 02:27:49;;;;;;;10.85;6.92;;;;;;;2.93;79.19;98105.45;1768572;79;20997;-39
2022/01/03 02:30:21;;;;;;;8.35;6.35;;;;;;;2.98;79.10;98096.63;1773361;79;21110;-39
2022/01/03 02:32:48;;;;;;;10.20;7.08;;;;;;;2.99;79.07;98077.34;1791042;79;20883;-38
2022/01/03 02:35:16;;;;;;;9.85;6.90;;;;;;;2.95;79.14;98059.81;1799721;79;20965;-38
2022/01/03 02:37:44;;;;;;;10.93;7.15;;;;;;;2.97;79.22;98043.42;1797043;79;20961;-39
2022/01/03 02:40:12;;;;;;;8.35;5.97;;;;;;;3.03;79.09;98035.37;1788006;79;21025;-38
2022/01/03 02:42:39;;;;;;;10.25;7.37;;;;;;;3.06;78.94;98014.04;1778937;79;21141;-38
2022/01/03 02:45:09;;;;;;;8.68;6.78;;;;;;;3.05;78.93;98005.78;1768406;81;21020;-38
2022/01/03 02:47:38;;;;;;;8.10;6.05;;;;;;;3.09;78.88;98002.44;1752494;80;20998;-38
2022/01/03 02:50:09;;;;;;;9.70;6.25;;;;;;;3.14;78.80;98010.22;1786783;79;20978;-39
2022/01/03 02:52:37;;;;;;;10.40;6.60;;;;;;;3.15;78.66;98068.02;1797808;79;20992;-38
2022/01/03 02:55:05;;;;;;;8.93;6.78;;;;;;;3.12;78.91;98070.80;1775613;79;21095;-38
2022/01/03 02:57:47;;;;;;;9.75;6.60;;;;;;;3.13;79.09;98073.70;1778461;79;20929;-38
2022/01/03 03:00:22;;;;;;;10.93;6.72;;;;;;;3.20;79.07;98048.44;1774702;79;20989;-38
2022/01/03 03:02:49;;;;;;;10.25;6.95;;;;;;;3.20;79.01;98040.41;1792197;79;21472;-38
2022/01/03 03:05:17;;;;;;;10.35;6.45;;;;;;;3.19;79.00;98034.08;1786466;79;21033;-39
2022/01/03 03:07:45;;;;;;;9.23;6.42;;;;;;;3.19;78.94;98028.16;1795642;79;21131;-39
2022/01/03 03:10:15;;;;;;;8.45;6.12;;;;;;;3.25;78.88;98024.09;1772730;79;20929;-38
2022/01/03 03:12:43;;;;;;;9.98;6.67;;;;;;;3.29;78.76;98019.59;1775876;79;20902;-39
2022/01/03 03:15:11;;;;;;;9.20;6.65;;;;;;;3.28;78.81;98019.97;1799716;79;20965;-39
2022/01/03 03:17:40;;;;;;;;;;;;;;;3.29;78.88;98010.22;1797387;78;21531;-38
2022/01/03 03:20:14;;;;;;;10.65;6.42;;;;;;;3.33;78.91;98007.66;1795557;79;21030;-39
2022/01/03 03:22:41;;;;;;;9.63;6.83;;;;;;;3.27;79.23;97998.31;1778849;79;20972;-39
2022/01/03 03:25:15;;;;;;;8.50;5.90;;;;;;;3.28;79.23;97999.31;1765550;79;20925;-39
2022/01/03 03:27:47;;;;;;;7.97;6.08;;;;;;;3.33;79.21;98004.98;1779434;79;20913;-39
2022/01/03 03:30:24;;;;;;;9.95;6.80;;;;;;;3.40;79.06;98003.80;1794574;79;21034;-39
2022/01/03 03:32:55;;;;;;;9.65;6.78;;;;;;;3.41;79.04;97973.22;1788923;79;21129;-39
2022/01/03 03:35:23;;;;;;;9.08;6.53;;;;;;;3.41;79.11;97993.31;1799405;79;20993;-39
2022/01/03 03:37:50;;;;;;;8.08;5.58;;;;;;;3.40;79.19;97991.75;1775469;79;20926;-38
2022/01/03 03:40:19;;;;;;;9.63;6.72;;;;;;;3.47;79.09;97982.56;1769096;79;21016;-38
2022/01/03 03:42:47;;;;;;;9.13;6.72;;;;;;;3.48;79.13;97975.53;1773015;79;21865;-39
2022/01/03 03:45:14;;;;;;;8.60;6.28;;;;;;;3.48;79.12;97966.70;1771384;78;21840;-39
2022/01/03 03:47:42;;;;;;;8.10;6.08;;;;;;;3.50;79.18;97964.44;1783377;79;20933;-39
2022/01/03 03:50:10;;;;;;;7.90;5.95;;;;;;;3.56;79.12;97961.72;1768147;80;21021;-39
2022/01/03 03:52:37;;;;;;;10.75;6.55;;;;;;;3.59;79.00;97952.98;1768334;79;21479;-39
2022/01/03 03:55:07;;;;;;;7.65;6.00;;;;;;;3.58;79.10;97952.01;1785033;79;21354;-39
2022/01/03 03:57:34;;;;;;;9.03;6.40;;;;;;;3.57;79.11;97948.55;1768176;79;21111;-38
2022/01/03 04:00:07;;;;;;;10.08;6.75;;;;;;;3.60;79.00;97953.20;1791081;79;21056;-39
2022/01/03 04:02:37;;;;;;;11.45;6.90;;;;;;;3.63;78.88;97936.41;1763386;81;21004;-38
2022/01/03 04:05:05;;;;;;;11.53;6.45;;;;;;;3.59;78.89;97938.80;1773118;79;21002;-39
2022/01/03 04:07:34;;;;;;;8.05;6.08;;;;;;;3.53;79.07;97928.94;1780352;79;20958;-39
2022/01/03 04:10:02;;;;;;;10.28;6.62;;;;;;;3.52;79.08;97930.61;1790900;79;21124;-39
2022/01/03 04:12:31;;;;;;;9.13;7.03;;;;;;;3.50;79.26;97907.62;1785259;79;21006;-38
2022/01/03 04:14:58;;;;;;;8.83;6.55;;;;;;;3.49;79.30;97920.02;1773069;80;21085;-39
2022/01/03 04:17:25;;;;;;;11.05;7.37;;;;;;;3.47;79.32;97912.34;1785859;80;20913;-39
2022/01/03 04:19:52;;;;;;;8.85;6.78;;;;;;;3.50;79.31;97912.20;1791185;80;21076;-39
2022/01/03 04:22:19;;;;;;;8.78;6.50;;;;;;;3.54;79.41;97900.21;1767646;78;21135;-39
2022/01/03 04:24:47;;;;;;;10.55;6.40;;;;;;;3.54;79.39;97900.99;1760699;80;20918;-39
2022/01/03 04:27:15;;;;;;;9.55;6.85;;;;;;;3.56;79.57;97893.95;1759483;80;21654;-38
2022/01/03 04:29:42;;;;;;;10.32;6.20;;;;;;;3.57;79.65;97889.59;1771433;79;21025;-39
2022/01/03 04:32:09;;;;;;;8.95;6.55;;;;;;;3.65;79.46;97876.56;1794066;78;21009;-39
2022/01/03 04:34:36;;;;;;;10.50;6.58;;;;;;;3.70;79.34;97890.25;1767154;80;21132;-39
2022/01/03 04:37:04;;;;;;;9.10;6.80;;;;;;;3.69;79.30;97881.44;1788977;80;21009;-39
2022/01/03 04:39:31;;;;;;;10.43;6.35;;;;;;;3.69;79.34;97873.39;1789096;78;21081;-39
2022/01/03 04:41:57;;;;;;;10.45;6.83;;;;;;;3.77;79.20;97872.44;1725283;81;21093;-39
2022/01/03 04:44:24;;;;;;;10.60;6.25;;;;;;;3.82;79.22;97872.16;1724281;81;21078;-39
2022/01/03 04:46:52;;;;;;;9.58;6.40;;;;;;;3.84;79.25;97865.88;1702832;83;21946;-39
2022/01/03 04:49:21;;;;;;;9.65;6.08;;;;;;;3.90;79.20;97865.03;1748808;82;21523;-39
2022/01/03 04:51:47;;;;;;;8.88;6.45;;;;;;;3.97;79.16;97851.02;1772048;80;20922;-39
2022/01/03 04:54:14;;;;;;;13.32;7.10;;;;;;;4.04;78.99;97852.48;1760428;80;20934;-39
2022/01/03 04:56:41;;;;;;;7.80;6.12;;;;;;;4.04;79.02;97854.59;1768388;80;21543;-39
2022/01/03 04:59:08;;;;;;;9.33;6.17;;;;;;;4.07;79.06;97849.08;1785864;80;21160;-39
2022/01/03 05:01:34;;;;;;;7.40;6.20;;;;;;;4.12;79.05;97850.92;1760178;80;21495;-39
2022/01/03 05:04:01;;;;;;;9.13;5.97;;;;;;;4.21;78.95;97854.75;1764033;79;21550;-39
2022/01/03 05:06:29;;;;;;;12.58;6.20;;;;;;;4.25;78.77;97856.38;1786251;79;21053;-39
2022/01/03 05:08:57;;;;;;;10.58;6.42;;;;;;;4.27;78.80;97847.95;1783942;80;21096;-39
2022/01/03 05:11:25;;;;;;;8.65;6.45;;;;;;;4.31;78.63;97846.89;1788815;80;21943;-39
2022/01/03 05:13:52;;;;;;;9.60;6.70;;;;;;;4.37;78.37;97840.67;1788979;80;21600;-39
2022/01/03 05:16:19;;;;;;;11.97;6.65;;;;;;;4.38;78.29;97847.03;1789013;80;21499;-39
2022/01/03 05:18:45;;;;;;;10.70;6.67;;;;;;;4.38;78.24;97834.95;1778175;80;21603;-39
2022/01/03 05:21:15;;;;;;;9.03;6.22;;;;;;;4.41;78.15;97838.05;1776517;79;20965;-39
2022/01/03 05:23:43;;;;;;;9.13;6.63;;;;;;;4.45;77.98;97835.66;1764635;80;21099;-39
2022/01/03 05:26:14;;;;;;;8.70;6.40;;;;;;;4.44;77.94;97850.20;1790401;80;21052;-39
2022/01/03 05:28:40;;;;;;;10.63;6.35;;;;;;;4.43;78.00;97854.02;1790678;79;21559;-39
2022/01/03 05:31:08;;;;;;;11.60;6.45;;;;;;;4.43;78.02;97842.50;1765829;80;21621;-39
2022/01/03 05:33:36;;;;;;;8.93;6.45;;;;;;;4.47;77.99;97842.78;1776671;80;21556;-39
2022/01/03 05:36:04;;;;;;;11.85;6.22;;;;;;;4.49;77.93;97848.58;1769422;80;21135;-39
2022/01/03 05:38:33;;;;;;;9.25;6.12;;;;;;;4.46;78.04;97842.56;1762878;79;21057;-39
2022/01/03 05:41:01;;;;;;;9.98;6.58;;;;;;;4.44;78.13;97840.03;1764862;80;21005;-39
2022/01/03 05:43:30;;;;;;;8.88;6.25;;;;;;;4.52;77.99;97836.34;1779620;80;21599;-39
2022/01/03 05:45:56;;;;;;;9.08;6.20;;;;;;;4.55;77.84;97832.37;1772986;80;21033;-39
2022/01/03 05:48:24;;;;;;;10.03;6.22;;;;;;;4.55;77.93;97830.28;1771329;80;21121;-39
2022/01/03 05:50:50;;;;;;;8.75;5.78;;;;;;;4.57;77.80;97823.41;1770249;80;20961;-39
2022/01/03 05:53:17;;;;;;;8.80;5.60;;;;;;;4.62;77.78;97831.73;1778667;80;21004;-39
2022/01/03 05:55:46;;;;;;;8.43;6.50;;;;;;;4.66;77.71;97835.25;1766260;80;21590;-39
2022/01/03 05:58:13;;;;;;;8.33;5.70;;;;;;;4.65;77.83;97831.00;1778369;80;21025;-39
2022/01/03 06:00:40;;;;;;;8.65;5.75;;;;;;;4.64;77.96;97834.28;1771004;79;21114;-39
2022/01/03 06:03:07;;;;;;;9.18;5.80;;;;;;;4.69;77.90;97835.33;1778183;78;21020;-39
2022/01/03 06:08:07;;;;;;;10.05;6.25;;;;;;;4.75;77.96;97841.16;1760816;80;21531;-39
2022/01/03 06:10:41;;;;;;;8.68;6.00;;;;;;;4.75;77.94;97835.78;1764850;79;21499;-39
2022/01/03 06:13:11;;;;;;;10.48;5.90;;;;;;;4.78;77.86;97839.11;1778831;78;21113;-39
2022/01/03 06:15:38;;;;;;;9.80;6.00;;;;;;;4.80;77.84;97826.09;1775685;80;20983;-39
2022/01/03 06:18:10;;;;;;;10.55;5.72;;;;;;;4.79;77.98;97819.94;1784255;78;21057;-39
2022/01/03 06:20:42;;;;;;;8.33;5.58;;;;;;;4.78;78.08;97835.87;1774671;79;21053;-39
2022/01/03 06:23:10;;;;;;;9.85;5.95;;;;;;;4.82;77.96;97830.55;1785794;79;21519;-39
2022/01/03 06:25:38;;;;;;;8.68;5.92;;;;;;;4.87;77.81;97817.39;1777080;79;21101;-39
2022/01/03 06:28:07;;;;;;;8.55;5.95;;;;;;;4.88;77.78;97828.34;1763018;79;21291;-39
2022/01/03 06:30:40;;;;;;;8.33;6.15;;;;;;;4.86;77.71;97834.06;1777960;80;21554;-39
2022/01/03 06:33:08;;;;;;;8.58;5.60;;;;;;;4.85;77.77;97834.41;1791241;80;21488;-39
2022/01/03 06:35:35;;;;;;;9.68;5.90;;;;;;;4.90;77.66;97830.86;1791478;80;21076;-39
2022/01/03 06:38:03;;;;;;;8.38;5.37;;;;;;;4.92;77.58;97839.35;1791238;80;21091;-39
2022/01/03 06:40:31;;;;;;;7.80;5.22;;;;;;;4.90;77.62;97831.43;1791379;80;21473;-39
2022/01/03 06:42:58;;;;;;;9.73;5.50;;;;;;;4.90;77.74;97826.06;1786456;80;20966;-39
2022/01/03 06:45:26;;;;;;;10.55;6.65;;;;;;;4.95;77.75;97825.76;1715021;81;21093;-39
2022/01/03 06:47:54;;;;;;;11.95;6.62;;;;;;;5.00;77.61;97830.27;1754843;80;21014;-39
2022/01/03 06:50:22;;;;;;;7.85;5.30;;;;;;;4.99;77.60;97823.34;1793083;79;21106;-39
2022/01/03 06:52:49;;;;;;;7.35;5.53;;;;;;;5.01;77.54;97831.05;1787920;79;21046;-39
2022/01/03 06:55:16;;;;;;;10.90;5.78;;;;;;;5.04;77.49;97825.72;1791450;80;21037;-39
2022/01/03 06:57:45;;;;;;;9.18;6.20;;;;;;;5.10;77.37;97820.26;1773666;80;21059;-39
2022/01/03 07:00:14;;;;;;;9.43;5.72;;;;;;;5.10;77.29;97824.85;1777561;79;21037;-39
2022/01/03 07:02:42;;;;;;;9.73;5.33;;;;;;;5.09;77.29;97825.42;1788929;80;21121;-39
2022/01/03 07:05:10;;;;;;;7.30;5.08;;;;;;;5.12;77.21;97821.25;1767806;78;21034;-39
2022/01/03 07:07:38;;;;;;;8.85;5.70;;;;;;;5.13;77.10;97820.13;1781324;80;21010;-39
2022/01/03 07:10:06;;;;;;;8.40;5.83;;;;;;;5.14;77.04;97828.36;1786277;79;20946;-39
2022/01/03 07:12:34;;;;;;;9.10;5.80;;;;;;;5.09;77.05;97824.08;1791316;79;21503;-39
2022/01/03 07:20:13;;;;;;;9.43;6.08;;;;;;;5.17;77.15;97815.57;1787988;80;21516;-39
2022/01/03 07:22:40;;;;;;;13.62;6.50;;;;;;;5.18;77.30;97816.53;1784670;80;21046;-39
2022/01/03 07:25:09;;;;;;;9.53;6.15;;;;;;;5.18;77.29;97815.19;1787071;79;21267;-39
2022/01/03 07:27:37;;;;;;;9.03;5.70;;;;;;;5.21;77.27;97818.52;1780958;78;21748;-39
2022/01/03 07:30:05;;;;;;;8.78;6.03;;;;;;;5.26;77.20;97801.31;1769613;79;21018;-39
2022/01/03 07:32:33;;;;;;;;;;;;;;;5.28;77.26;97796.93;1774206;80;21556;-39
2022/01/03 07:35:00;;;;;;;9.08;5.72;;;;;;;5.30;77.23;97781.98;1791300;80;20483;-39
2022/01/03 07:37:27;;;;;;;7.78;5.67;;;;;;;5.28;77.43;97783.50;1791249;80;21021;-39
2022/01/03 07:39:54;;;;;;;8.30;5.50;;;;;;;5.35;77.21;97783.02;1792311;79;21122;-39
2022/01/03 07:42:21;;;;;;;9.08;5.85;;;;;;;5.41;77.04;97776.20;1791080;79;20970;-39
2022/01/03 07:44:49;;;;;;;9.80;6.03;;;;;;;5.43;76.97;97777.16;1790731;79;21009;-39
2022/01/03 07:47:16;;;;;;;9.03;5.72;;;;;;;5.42;76.97;97775.03;1790885;80;20990;-39
2022/01/03 07:49:44;;;;;;;8.78;5.58;;;;;;;5.48;76.97;97778.96;1785865;79;21022;-39
2022/01/03 07:52:11;;;;;;;11.33;6.20;;;;;;;5.53;76.96;97771.92;1796989;79;21165;-39
2022/01/03 07:54:37;;;;;;;9.35;6.22;;;;;;;5.62;76.78;97774.33;1777874;79;21004;-39
2022/01/03 07:57:04;;;;;;;7.25;5.60;;;;;;;5.66;76.75;97760.39;1776952;79;20988;-39
2022/01/03 07:59:31;;;;;;;10.15;6.58;;;;;;;5.68;76.77;97769.63;1791526;79;21029;-39
2022/01/03 08:01:59;;;;;;;8.73;5.67;;;;;;;5.76;76.69;97765.09;1791275;80;21802;-39
2022/01/03 08:04:26;;;;;;;9.48;5.90;;;;;;;5.50;76.58;97718.91;1788817;79;21157;-39
2022/01/03 08:06:53;;;;;;;10.00;5.60;;;;;;;5.87;76.62;97761.23;1787734;79;20911;-39
2022/01/03 08:09:19;;;;;;;8.85;5.70;;;;;;;5.91;76.65;97762.03;1793154;80;21057;-39
2022/01/03 08:11:46;;;;;;;8.35;5.47;;;;;;;5.95;76.56;97758.84;1793503;80;21109;-39
2022/01/03 08:14:12;;;;;;;11.10;5.60;;;;;;;6.02;76.36;97756.21;1793738;79;21080;-39
2022/01/03 08:16:39;;;;;;;7.53;5.72;;;;;;;6.09;76.22;97758.99;1771128;79;21129;-39
2022/01/03 08:19:06;;;;;;;8.45;5.80;;;;;;;6.10;76.19;97754.56;1777755;80;21071;-39
2022/01/03 08:21:34;;;;;;;8.68;5.55;;;;;;;6.14;76.09;97749.81;1782365;78;21000;-39
2022/01/03 08:24:01;;;;;;;8.48;4.85;;;;;;;6.17;75.93;97742.34;1770814;79;21029;-40
2022/01/03 08:26:27;;;;;;;7.55;5.17;;;;;;;6.22;75.78;97749.51;1803217;79;21068;-40
2022/01/03 08:28:55;;;;;;;8.00;5.55;;;;;;;6.25;75.58;97742.03;1801264;79;21185;-39
2022/01/03 08:31:22;;;;;;;7.53;5.42;;;;;;;6.24;75.52;97740.51;1800813;79;20914;-39
2022/01/03 08:33:49;;;;;;;7.47;5.08;;;;;;;6.22;75.59;97732.02;1769413;79;21033;-39
2022/01/03 08:36:16;;;;;;;10.65;5.50;;;;;;;6.26;75.63;97734.73;1799588;79;21017;-39
2022/01/03 08:38:44;;;;;;;7.60;5.28;;;;;;;6.30;75.54;97729.59;1793620;79;21049;-39
2022/01/03 08:41:11;;;;;;;8.43;5.62;;;;;;;6.35;75.37;97724.44;1785281;79;21137;-40
2022/01/03 08:43:38;;;;;;;8.90;5.55;;;;;;;6.34;75.36;97715.59;1768963;79;20973;-40
2022/01/03 08:46:04;;;;;;;9.93;5.42;;;;;;;6.34;75.43;97716.94;1770551;79;21014;-39
2022/01/03 08:48:31;;;;;;;8.63;5.42;;;;;;;6.41;75.41;97714.89;1797642;79;21507;-40
2022/01/03 08:50:58;;;;;;;8.45;5.75;;;;;;;6.46;75.37;97709.94;1798198;79;21575;-39
2022/01/03 08:53:27;;;;;;;10.20;6.50;;;;;;;6.47;75.33;97708.80;1783039;79;21855;-40
2022/01/03 08:55:55;;;;;;;8.40;5.50;;;;;;;6.48;75.48;97706.31;1787473;79;21465;-40
2022/01/03 08:58:22;;;;;;;8.80;5.22;;;;;;;6.50;75.58;97698.63;1799270;79;20906;-40
2022/01/03 09:00:49;;;;;;;10.55;6.03;;;;;;;6.58;75.55;97696.78;1798679;79;21134;-40
2022/01/03 09:03:17;;;;;;;8.98;5.75;;;;;;;6.64;75.62;97693.92;1799483;79;20989;-39
2022/01/03 09:05:44;;;;;;;9.23;5.78;;;;;;;6.71;75.65;97691.86;1786042;78;21103;-39
2022/01/03 09:08:11;;;;;;;8.85;5.50;;;;;;;6.79;75.71;97681.33;1732928;81;21564;-39
2022/01/03 09:10:38;;;;;;;6.60;4.53;;;;;;;6.88;75.47;97674.46;1733659;82;21837;-40
2022/01/03 09:13:05;;;;;;;7.17;5.70;;;;;;;6.96;75.24;97659.13;1749238;82;20953;-40
2022/01/03 09:15:32;;;;;;;8.35;5.10;;;;;;;7.03;74.94;97664.54;1751247;82;21088;-40
2022/01/03 09:17:58;;;;;;;8.35;5.22;;;;;;;7.11;74.90;97662.67;1751334;82;21108;-40
2022/01/03 09:20:25;;;;;;;9.05;5.53;;;;;;;7.13;74.70;97661.13;1742350;82;20887;-40
2022/01/03 09:22:55;;;;;;;8.03;5.30;;;;;;;7.22;74.43;97652.13;1748119;82;21041;-40
2022/01/03 09:30:48;;;;;;;7.05;4.95;;;;;;;7.52;73.73;97641.65;1749395;81;21101;-40
2022/01/03 09:33:17;;;;;;;8.58;5.00;;;;;;;7.63;73.37;97639.77;1749641;79;20926;-40
2022/01/03 09:35:43;;;;;;;8.95;5.00;;;;;;;7.73;72.57;97629.01;1731487;81;21043;-40
2022/01/03 09:38:10;;;;;;;9.25;5.10;;;;;;;7.83;72.49;97639.63;1721302;83;20998;-40
2022/01/03 09:40:41;;;;;;;8.25;5.30;;;;;;;7.83;72.00;97630.19;1740511;81;20986;-40
2022/01/03 09:43:09;;;;;;;10.75;5.08;;;;;;;7.86;72.04;97634.23;1733414;82;21099;-40
2022/01/03 09:45:37;;;;;;;8.25;5.30;;;;;;;7.94;71.84;97618.81;1746824;81;20983;-40
2022/01/03 09:48:07;;;;;;;9.45;5.40;;;;;;;8.01;71.79;97619.41;1741746;80;21076;-40
2022/01/03 09:50:34;;;;;;;8.88;5.15;;;;;;;8.01;71.57;97620.18;1766187;81;21027;-40
2022/01/03 09:53:03;;;;;;;8.28;4.75;;;;;;;8.04;71.28;97617.28;1723544;83;21048;-40
2022/01/03 09:55:30;;;;;;;9.70;5.10;;;;;;;8.10;71.35;97602.25;1769505;80;21099;-40
2022/01/03 09:57:56;;;;;;;9.63;5.15;;;;;;;8.14;71.17;97600.31;1709659;82;21001;-40
2022/01/03 10:00:23;;;;;;;9.48;5.35;;;;;;;8.15;71.21;97602.64;1739461;81;21785;-40
2022/01/03 10:02:51;;;;;;;7.12;4.72;;;;;;;8.16;71.03;97598.80;1743531;82;21582;-40
2022/01/03 10:05:19;;;;;;;7.33;4.50;;;;;;;8.20;70.78;97598.20;1744152;81;21075;-40
2022/01/03 10:07:45;;;;;;;7.55;4.62;;;;;;;8.24;70.40;97601.67;1728956;81;21093;-40
2022/01/03 10:10:13;;;;;;;7.67;5.03;;;;;;;8.27;70.33;97590.70;1728137;82;21005;-40
2022/01/03 10:12:39;;;;;;;7.80;4.65;;;;;;;8.27;70.12;97590.70;1719280;82;21564;-40
2022/01/03 10:15:08;;;;;;;7.28;4.50;;;;;;;8.32;70.11;97589.56;1707683;82;21600;-40
2022/01/03 10:17:40;;;;;;;9.48;5.37;;;;;;;8.38;69.86;97583.37;1728879;82;21042;-40
2022/01/03 10:20:12;;;;;;;7.67;4.97;;;;;;;8.44;69.53;97572.38;1733036;82;21099;-40
2022/01/03 10:22:40;;;;;;;6.30;4.33;;;;;;;8.46;69.11;97562.55;1732539;82;20950;-40
2022/01/03 10:25:18;;;;;;;8.08;4.35;;;;;;;8.49;69.24;97580.66;1727625;82;21006;-40
2022/01/03 10:27:55;;;;;;;6.17;3.87;;;;;;;8.53;68.94;97574.67;1720627;82;20999;-40
2022/01/03 10:30:42;;;;;;;7.33;4.37;;;;;;;8.56;68.50;97571.20;1734449;82;21020;-40
2022/01/03 10:33:16;;;;;;;8.23;4.58;;;;;;;8.54;68.78;97578.91;1722586;82;22199;-40
2022/01/03 10:35:53;;;;;;;8.20;4.28;;;;;;;8.53;68.89;97570.61;1731087;81;21073;-40
2022/01/03 10:38:36;;;;;;;9.80;5.10;;;;;;;8.54;68.60;97560.01;1716612;82;21085;-40
2022/01/03 10:41:16;;;;;;;6.40;4.05;;;;;;;8.52;68.30;97563.09;1756539;81;21002;-40
2022/01/03 10:43:46;;;;;;;5.92;4.28;;;;;;;8.50;68.32;97567.35;1733123;82;21104;-40
2022/01/03 10:46:33;;;;;;;5.35;3.95;;;;;;;8.47;68.65;97566.79;1737929;82;21756;-40
2022/01/03 10:49:21;;;;;;;5.83;4.22;;;;;;;8.49;68.62;97569.86;1752034;81;21508;-40
2022/01/03 10:51:48;;;;;;;6.42;4.33;;;;;;;8.47;68.66;97570.23;1740999;82;21087;-40
2022/01/03 10:54:17;;;;;;;10.13;4.10;;;;;;;8.41;68.62;97563.70;1732773;81;20999;-40
2022/01/03 10:56:50;;;;;;;7.40;4.50;;;;;;;8.38;68.88;97566.39;1743100;81;20994;-40
2022/01/03 10:59:24;;;;;;;7.60;3.98;;;;;;;8.34;68.85;97564.28;1724174;82;21117;-40
2022/01/03 11:02:02;;;;;;;6.17;3.95;;;;;;;8.38;68.64;97559.64;1745503;80;20940;-40
2022/01/03 11:04:59;;;;;;;6.47;4.20;;;;;;;8.39;68.52;97550.39;1731865;81;21018;-40
2022/01/03 11:13:13;;;;;;;7.22;4.28;;;;;;;8.37;68.55;97550.02;1705866;83;21140;-40
2022/01/03 11:15:43;;;;;;;7.83;4.50;;;;;;;8.32;68.21;97528.24;1723535;82;21513;-40
2022/01/03 11:18:14;;;;;;;7.87;4.37;;;;;;;8.31;68.18;97536.72;1709881;81;21028;-40
2022/01/03 11:20:41;;;;;;;6.85;3.50;;;;;;;8.29;68.20;97543.27;1753645;81;21476;-40
2022/01/03 11:23:09;;;;;;;6.65;4.50;;;;;;;8.29;68.26;97535.17;1753635;81;21045;-40
2022/01/03 11:25:36;;;;;;;7.80;4.10;;;;;;;8.36;67.92;97541.73;1769872;80;21129;-40
2022/01/03 11:28:04;;;;;;;8.15;4.17;;;;;;;8.34;67.93;97535.36;1744132;81;21037;-40
2022/01/03 11:30:30;;;;;;;7.85;4.33;;;;;;;8.34;67.86;97537.28;1784618;80;20970;-40
2022/01/03 11:32:57;;;;;;;7.00;3.92;;;;;;;8.28;67.75;97539.00;1784523;80;21006;-40
2022/01/03 11:35:24;;;;;;;7.60;3.83;;;;;;;8.32;67.84;97528.81;1784808;80;21062;-40
2022/01/03 11:37:50;;;;;;;7.10;3.67;;;;;;;8.36;67.66;97538.45;1785057;80;21086;-40
2022/01/03 11:40:18;;;;;;;6.78;4.05;;;;;;;8.33;67.66;97528.41;1782649;79;20950;-40
2022/01/03 11:42:44;;;;;;;6.47;3.90;;;;;;;8.31;67.73;97527.27;1791688;79;20998;-40
2022/01/03 11:45:12;;;;;;;5.37;3.58;;;;;;;8.33;67.66;97526.31;1781144;79;21026;-40
2022/01/03 11:47:39;;;;;;;7.80;4.10;;;;;;;8.34;67.67;97526.48;1790342;79;21057;-40
2022/01/03 11:50:07;;;;;;;6.08;3.50;;;;;;;8.33;67.60;97531.11;1785141;80;21958;-40
2022/01/03 11:52:42;;;;;;;7.70;3.73;;;;;;;8.33;67.70;97527.66;1790828;80;21493;-41
2022/01/03 11:55:10;;;;;;;5.12;3.35;;;;;;;8.28;67.71;97521.45;1791665;79;21531;-40
2022/01/03 11:58:30;;;;;;;6.95;3.50;;;;;;;8.27;67.77;97526.67;1791122;79;21540;-41
2022/01/03 12:06:00;;;;;;;7.83;3.92;;;;;;;8.26;67.78;97523.01;1786939;80;21485;-40
2022/01/03 12:08:32;;;;;;;6.35;3.77;;;;;;;7.88;67.74;97455.02;1789344;79;21492;-41
2022/01/03 12:11:17;;;;;;;7.05;3.72;;;;;;;8.21;67.84;97503.92;1789496;80;20923;-40
2022/01/03 12:13:55;;;;;;;4.67;3.62;;;;;;;8.23;67.74;97516.44;1785591;79;21532;-40
2022/01/03 12:16:56;;;;;;;7.08;3.80;;;;;;;8.21;67.86;97518.78;1783044;80;21887;-39
2022/01/03 12:19:42;;;;;;;5.55;3.35;;;;;;;8.16;67.90;97509.72;1791457;80;21014;-40
2022/01/03 12:23:04;;;;;;;5.47;3.30;;;;;;;8.24;67.93;97512.59;1830496;78;23154;-40